Arwen — OJ9221 — position and weather

sailwx.info

Track history (hours):
 
Tides and Currents Weather Stations Pressure Air Temp Water Temp Dewpoint Dewpoint Depression Visibility Wind Speed Wind Dir Waves Ship Positions

Arwen

Last reported at 2018-May-26 12:14 UTC. Time now 2018-May-26 23:12 UTC.
Position N 60°09' E 024°54'.

Length 11 m.

Type: Pleasure craft. MMSI: 230032660.

Date/timePositionNaut miles runAvg speedWind from/ knotsBaromVisibWave heightAir tempDewpointWater temp
2018-May-26 12:14N 60°09' E 024°54'0 1.3
2018-May-26 12:00N 60°09' E 024°54'3 6.3
2018-May-26 11:29N 60°06' E 024°54'2 2.5
2018-May-26 10:52N 60°04' E 024°56'0 0.7
2018-May-26 10:29N 60°05' E 024°56'0 0.3
2018-May-26 10:00N 60°05' E 024°56'0 0.6
2018-May-26 09:28N 60°04' E 024°55'0 0.8
2018-May-26 08:55N 60°04' E 024°56'0 0.6
2018-May-26 08:28N 60°04' E 024°56'0 0.7
2018-May-26 08:00N 60°05' E 024°56'1 1.3
2018-May-26 07:30N 60°05' E 024°56'1 2.4
2018-May-26 07:00N 60°06' E 024°54'3 5.8
2018-May-26 06:30N 60°09' E 024°54'  
2018-May-23 17:40N 60°09' E 024°54'0 0.0
2018-May-23 17:19N 60°09' E 024°54'0 0.9
2018-May-23 17:00N 60°09' E 024°54'2 4.2
2018-May-23 16:30N 60°07' E 024°53'0 0.9
2018-May-23 16:00N 60°07' E 024°54'0 0.3
2018-May-23 15:30N 60°07' E 024°54'1 1.5
2018-May-23 15:00N 60°07' E 024°52'2 3.7
2018-May-23 14:29N 60°09' E 024°54'0 0.6
2018-May-23 13:51N 60°09' E 024°54'  
Track history (hours):
 
Tides and Currents Weather Stations Pressure Air Temp Water Temp Dewpoint Dewpoint Depression Visibility Wind Speed Wind Dir Waves Ship Positions

Arwen

Last reported at 2018-May-26 12:14 UTC. Time now 2018-May-26 23:12 UTC.
Position N 60°09' E 024°54'.

Length 11 m.

Type: Pleasure craft. MMSI: 230032660.

Date/timePositionNaut miles runAvg speedWind from/ knotsBaromVisibWave heightAir tempDewpointWater temp
2018-May-26 12:14N 60°09' E 024°54'0 1.3
2018-May-26 12:00N 60°09' E 024°54'3 6.3
2018-May-26 11:29N 60°06' E 024°54'2 2.5
2018-May-26 10:52N 60°04' E 024°56'0 0.7
2018-May-26 10:29N 60°05' E 024°56'0 0.3
2018-May-26 10:00N 60°05' E 024°56'0 0.6
2018-May-26 09:28N 60°04' E 024°55'0 0.8
2018-May-26 08:55N 60°04' E 024°56'0 0.6
2018-May-26 08:28N 60°04' E 024°56'0 0.7
2018-May-26 08:00N 60°05' E 024°56'1 1.3
2018-May-26 07:30N 60°05' E 024°56'1 2.4
2018-May-26 07:00N 60°06' E 024°54'3 5.8
2018-May-26 06:30N 60°09' E 024°54'  
2018-May-23 17:40N 60°09' E 024°54'0 0.0
2018-May-23 17:19N 60°09' E 024°54'0 0.9
2018-May-23 17:00N 60°09' E 024°54'2 4.2
2018-May-23 16:30N 60°07' E 024°53'0 0.9
2018-May-23 16:00N 60°07' E 024°54'0 0.3
2018-May-23 15:30N 60°07' E 024°54'1 1.5
2018-May-23 15:00N 60°07' E 024°52'2 3.7
2018-May-23 14:29N 60°09' E 024°54'0 0.6
2018-May-23 13:51N 60°09' E 024°54'  

Dump ship's entire track history